Decoded Metar for CYOJ (HIGH LEVEL in AB, CANADA) (IATA:YOJ) | Meteo·Mobile Aviation Weather
aviador You're here:

CYOJ Decoded Metar

HIGH LEVEL in AB, CANADA
Report Time2018-10-18 09:00:00
UTC Time2018-10-18 09:52:19
Flight Rules vfr VFR
Wind280° at 04 kt
W.Decomp.*RWY 31: 2.5 kt HW 3.1 kt LCW
W.Rank280° ranks 30
Current wind is below 280° avg. (4.2)
Visibility9999 m
Phenomena:N/A
Clouds:Overcast 250 Hf
Expected CloudBase > 4,000 ft AGL from Temp-Dew spread
Ceiling25,000 ft
Temp11°C (ISA -2)
Dew Point01°C (50% RH)
AAT7.7°C
QNH1007 hPa
Density Alt1,194 ft
Elevation1,109 ft
Report Wrong Elevation
Raw Report
CYOJ 180900Z AUTO 28004KT 200V340 9SM OVC250 11/01 A2974 RMK
SLP084=

Extra information for CYOJ:More info

Metar Taf Metar & Taf Last 4 Metars F.Rules Stats Wind Profile Meteogram Temp Stats Airport Information Weather charts Add Link Nearby VenuesMetar ALERT Operation Metar Decoded Social comments